sensor_id;sensor_type;location;lat;lon;timestamp;P1;durP1;ratioP1;P2;durP2;ratioP2
17380;SDS011;8808;52.478;13.378;2023-04-29T00:01:19;8.80;;;5.90;;
17380;SDS011;8808;52.478;13.378;2023-04-29T00:03:46;10.07;;;6.73;;
17380;SDS011;8808;52.478;13.378;2023-04-29T00:06:13;9.70;;;6.20;;
17380;SDS011;8808;52.478;13.378;2023-04-29T00:08:40;11.43;;;6.63;;
17380;SDS011;8808;52.478;13.378;2023-04-29T00:11:08;10.03;;;6.40;;
17380;SDS011;8808;52.478;13.378;2023-04-29T00:13:35;11.17;;;7.20;;
17380;SDS011;8808;52.478;13.378;2023-04-29T00:16:03;10.23;;;6.43;;
17380;SDS011;8808;52.478;13.378;2023-04-29T00:18:32;11.10;;;6.60;;
17380;SDS011;8808;52.478;13.378;2023-04-29T00:21:00;9.77;;;6.87;;
17380;SDS011;8808;52.478;13.378;2023-04-29T00:23:29;9.90;;;6.83;;
17380;SDS011;8808;52.478;13.378;2023-04-29T00:25:56;12.07;;;6.87;;
17380;SDS011;8808;52.478;13.378;2023-04-29T00:28:23;10.87;;;6.70;;
17380;SDS011;8808;52.478;13.378;2023-04-29T00:30:50;12.43;;;6.87;;
17380;SDS011;8808;52.478;13.378;2023-04-29T00:33:17;12.10;;;6.57;;
17380;SDS011;8808;52.478;13.378;2023-04-29T00:35:46;12.97;;;6.97;;
17380;SDS011;8808;52.478;13.378;2023-04-29T00:38:13;11.20;;;6.70;;
17380;SDS011;8808;52.478;13.378;2023-04-29T00:40:40;10.83;;;7.17;;
17380;SDS011;8808;52.478;13.378;2023-04-29T00:43:08;11.20;;;6.50;;
17380;SDS011;8808;52.478;13.378;2023-04-29T00:45:35;10.83;;;6.70;;
17380;SDS011;8808;52.478;13.378;2023-04-29T00:48:02;13.60;;;7.07;;
17380;SDS011;8808;52.478;13.378;2023-04-29T00:50:29;10.07;;;6.67;;
17380;SDS011;8808;52.478;13.378;2023-04-29T00:52:57;10.47;;;6.90;;
17380;SDS011;8808;52.478;13.378;2023-04-29T00:55:25;11.60;;;7.30;;
17380;SDS011;8808;52.478;13.378;2023-04-29T00:57:52;11.50;;;6.80;;
17380;SDS011;8808;52.478;13.378;2023-04-29T01:00:19;11.30;;;7.17;;
17380;SDS011;8808;52.478;13.378;2023-04-29T01:02:54;12.60;;;7.03;;
17380;SDS011;8808;52.478;13.378;2023-04-29T01:05:22;10.47;;;7.00;;
17380;SDS011;8808;52.478;13.378;2023-04-29T01:07:52;13.47;;;7.27;;
17380;SDS011;8808;52.478;13.378;2023-04-29T01:10:27;15.10;;;7.10;;
17380;SDS011;8808;52.478;13.378;2023-04-29T01:12:59;15.60;;;7.60;;
17380;SDS011;8808;52.478;13.378;2023-04-29T01:15:34;12.93;;;7.10;;
17380;SDS011;8808;52.478;13.378;2023-04-29T01:18:10;12.53;;;7.67;;
17380;SDS011;8808;52.478;13.378;2023-04-29T01:20:41;12.80;;;7.93;;
17380;SDS011;8808;52.478;13.378;2023-04-29T01:23:09;14.37;;;7.83;;
17380;SDS011;8808;52.478;13.378;2023-04-29T01:25:37;14.67;;;7.77;;
17380;SDS011;8808;52.478;13.378;2023-04-29T01:28:08;12.70;;;7.93;;
17380;SDS011;8808;52.478;13.378;2023-04-29T01:30:42;13.00;;;8.77;;
17380;SDS011;8808;52.478;13.378;2023-04-29T01:33:16;14.03;;;8.90;;
17380;SDS011;8808;52.478;13.378;2023-04-29T01:35:55;15.13;;;8.10;;
17380;SDS011;8808;52.478;13.378;2023-04-29T01:38:29;15.03;;;8.87;;
17380;SDS011;8808;52.478;13.378;2023-04-29T01:41:07;14.80;;;9.10;;
17380;SDS011;8808;52.478;13.378;2023-04-29T01:43:38;15.23;;;9.00;;
17380;SDS011;8808;52.478;13.378;2023-04-29T01:46:06;17.33;;;9.20;;
17380;SDS011;8808;52.478;13.378;2023-04-29T01:48:35;18.20;;;9.63;;
17380;SDS011;8808;52.478;13.378;2023-04-29T01:51:02;18.63;;;9.97;;
17380;SDS011;8808;52.478;13.378;2023-04-29T01:53:30;16.00;;;9.47;;
17380;SDS011;8808;52.478;13.378;2023-04-29T01:55:57;18.77;;;9.57;;
17380;SDS011;8808;52.478;13.378;2023-04-29T01:58:26;16.70;;;10.53;;
17380;SDS011;8808;52.478;13.378;2023-04-29T02:00:53;18.07;;;11.10;;
17380;SDS011;8808;52.478;13.378;2023-04-29T02:03:21;20.63;;;10.53;;
17380;SDS011;8808;52.478;13.378;2023-04-29T02:05:48;20.47;;;11.20;;
17380;SDS011;8808;52.478;13.378;2023-04-29T02:08:15;18.47;;;11.33;;
17380;SDS011;8808;52.478;13.378;2023-04-29T02:10:50;21.17;;;11.70;;
17380;SDS011;8808;52.478;13.378;2023-04-29T02:13:18;17.20;;;11.63;;
17380;SDS011;8808;52.478;13.378;2023-04-29T02:15:46;19.13;;;10.97;;
17380;SDS011;8808;52.478;13.378;2023-04-29T02:18:13;16.50;;;11.00;;
17380;SDS011;8808;52.478;13.378;2023-04-29T02:20:40;20.80;;;11.97;;
17380;SDS011;8808;52.478;13.378;2023-04-29T02:23:07;18.80;;;11.00;;
17380;SDS011;8808;52.478;13.378;2023-04-29T02:25:34;21.17;;;11.60;;
17380;SDS011;8808;52.478;13.378;2023-04-29T02:28:01;21.00;;;11.97;;
17380;SDS011;8808;52.478;13.378;2023-04-29T02:30:28;23.30;;;11.93;;
17380;SDS011;8808;52.478;13.378;2023-04-29T02:32:56;20.23;;;12.23;;
17380;SDS011;8808;52.478;13.378;2023-04-29T02:35:24;22.83;;;12.83;;
17380;SDS011;8808;52.478;13.378;2023-04-29T02:37:51;21.90;;;12.47;;
17380;SDS011;8808;52.478;13.378;2023-04-29T02:40:18;22.33;;;13.30;;
17380;SDS011;8808;52.478;13.378;2023-04-29T02:42:45;23.27;;;12.93;;
17380;SDS011;8808;52.478;13.378;2023-04-29T02:45:11;21.03;;;12.43;;
17380;SDS011;8808;52.478;13.378;2023-04-29T02:47:39;23.70;;;13.30;;
17380;SDS011;8808;52.478;13.378;2023-04-29T02:50:08;23.73;;;13.17;;
17380;SDS011;8808;52.478;13.378;2023-04-29T02:52:35;27.63;;;13.93;;
17380;SDS011;8808;52.478;13.378;2023-04-29T02:55:02;23.03;;;13.70;;
17380;SDS011;8808;52.478;13.378;2023-04-29T02:57:29;27.57;;;14.73;;
17380;SDS011;8808;52.478;13.378;2023-04-29T02:59:56;24.13;;;13.63;;
17380;SDS011;8808;52.478;13.378;2023-04-29T03:02:23;26.67;;;15.40;;
17380;SDS011;8808;52.478;13.378;2023-04-29T03:04:50;27.27;;;14.60;;
17380;SDS011;8808;52.478;13.378;2023-04-29T03:07:19;24.50;;;14.60;;
17380;SDS011;8808;52.478;13.378;2023-04-29T03:09:46;28.17;;;14.83;;
17380;SDS011;8808;52.478;13.378;2023-04-29T03:12:13;25.67;;;15.87;;
17380;SDS011;8808;52.478;13.378;2023-04-29T03:14:40;25.50;;;15.43;;
17380;SDS011;8808;52.478;13.378;2023-04-29T03:17:08;26.03;;;15.97;;
17380;SDS011;8808;52.478;13.378;2023-04-29T03:19:34;28.13;;;15.77;;
17380;SDS011;8808;52.478;13.378;2023-04-29T03:22:02;32.07;;;17.07;;
17380;SDS011;8808;52.478;13.378;2023-04-29T03:24:30;27.00;;;15.73;;
17380;SDS011;8808;52.478;13.378;2023-04-29T03:26:57;29.63;;;15.90;;
17380;SDS011;8808;52.478;13.378;2023-04-29T03:29:25;31.20;;;16.67;;
17380;SDS011;8808;52.478;13.378;2023-04-29T03:31:52;26.33;;;15.83;;
17380;SDS011;8808;52.478;13.378;2023-04-29T03:34:20;33.10;;;17.33;;
17380;SDS011;8808;52.478;13.378;2023-04-29T03:36:48;33.07;;;17.03;;
17380;SDS011;8808;52.478;13.378;2023-04-29T03:39:16;33.43;;;17.67;;
17380;SDS011;8808;52.478;13.378;2023-04-29T03:41:44;34.13;;;17.83;;
17380;SDS011;8808;52.478;13.378;2023-04-29T03:44:12;34.60;;;18.07;;
17380;SDS011;8808;52.478;13.378;2023-04-29T03:46:39;30.47;;;17.67;;
17380;SDS011;8808;52.478;13.378;2023-04-29T03:49:06;35.77;;;17.73;;
17380;SDS011;8808;52.478;13.378;2023-04-29T03:51:33;34.70;;;17.97;;
17380;SDS011;8808;52.478;13.378;2023-04-29T03:54:00;34.50;;;18.40;;
17380;SDS011;8808;52.478;13.378;2023-04-29T03:56:27;35.20;;;18.23;;
17380;SDS011;8808;52.478;13.378;2023-04-29T03:58:55;32.63;;;18.87;;
17380;SDS011;8808;52.478;13.378;2023-04-29T04:01:22;32.17;;;18.43;;
17380;SDS011;8808;52.478;13.378;2023-04-29T04:03:50;34.27;;;18.83;;
17380;SDS011;8808;52.478;13.378;2023-04-29T04:06:16;35.63;;;19.20;;
17380;SDS011;8808;52.478;13.378;2023-04-29T04:08:44;35.57;;;19.13;;
17380;SDS011;8808;52.478;13.378;2023-04-29T04:11:11;38.00;;;19.07;;
17380;SDS011;8808;52.478;13.378;2023-04-29T04:13:39;34.67;;;18.77;;
17380;SDS011;8808;52.478;13.378;2023-04-29T04:16:07;39.27;;;19.03;;
17380;SDS011;8808;52.478;13.378;2023-04-29T04:18:35;36.17;;;19.53;;
17380;SDS011;8808;52.478;13.378;2023-04-29T04:21:05;37.80;;;18.70;;
17380;SDS011;8808;52.478;13.378;2023-04-29T04:23:33;37.20;;;19.70;;
17380;SDS011;8808;52.478;13.378;2023-04-29T04:26:00;45.87;;;20.33;;
17380;SDS011;8808;52.478;13.378;2023-04-29T04:28:27;37.50;;;19.07;;
17380;SDS011;8808;52.478;13.378;2023-04-29T04:30:54;36.43;;;19.33;;
17380;SDS011;8808;52.478;13.378;2023-04-29T04:33:22;45.37;;;21.27;;
17380;SDS011;8808;52.478;13.378;2023-04-29T04:35:50;40.77;;;19.37;;
17380;SDS011;8808;52.478;13.378;2023-04-29T04:38:17;38.50;;;19.57;;
17380;SDS011;8808;52.478;13.378;2023-04-29T04:40:44;39.90;;;19.33;;
17380;SDS011;8808;52.478;13.378;2023-04-29T04:43:11;42.87;;;19.80;;
17380;SDS011;8808;52.478;13.378;2023-04-29T04:45:37;40.03;;;21.30;;
17380;SDS011;8808;52.478;13.378;2023-04-29T04:48:05;41.53;;;20.70;;
17380;SDS011;8808;52.478;13.378;2023-04-29T04:50:33;39.50;;;20.20;;
17380;SDS011;8808;52.478;13.378;2023-04-29T04:53:00;42.03;;;21.97;;
17380;SDS011;8808;52.478;13.378;2023-04-29T04:55:27;41.33;;;21.50;;
17380;SDS011;8808;52.478;13.378;2023-04-29T04:57:55;39.60;;;19.97;;
17380;SDS011;8808;52.478;13.378;2023-04-29T05:00:22;41.80;;;21.50;;
17380;SDS011;8808;52.478;13.378;2023-04-29T05:02:49;40.60;;;22.13;;
17380;SDS011;8808;52.478;13.378;2023-04-29T05:05:16;39.33;;;21.20;;
17380;SDS011;8808;52.478;13.378;2023-04-29T05:07:44;40.50;;;21.10;;
17380;SDS011;8808;52.478;13.378;2023-04-29T05:10:12;42.37;;;22.23;;
17380;SDS011;8808;52.478;13.378;2023-04-29T05:12:39;42.30;;;21.87;;
17380;SDS011;8808;52.478;13.378;2023-04-29T05:15:06;42.37;;;22.80;;
17380;SDS011;8808;52.478;13.378;2023-04-29T05:17:34;46.30;;;22.83;;
17380;SDS011;8808;52.478;13.378;2023-04-29T05:20:01;48.73;;;22.50;;
17380;SDS011;8808;52.478;13.378;2023-04-29T05:22:28;46.17;;;22.47;;
17380;SDS011;8808;52.478;13.378;2023-04-29T05:24:56;43.13;;;21.73;;
17380;SDS011;8808;52.478;13.378;2023-04-29T05:27:27;46.07;;;22.07;;
17380;SDS011;8808;52.478;13.378;2023-04-29T05:29:54;41.83;;;21.50;;
17380;SDS011;8808;52.478;13.378;2023-04-29T05:32:21;43.80;;;22.47;;
17380;SDS011;8808;52.478;13.378;2023-04-29T05:34:48;46.97;;;22.97;;
17380;SDS011;8808;52.478;13.378;2023-04-29T05:37:15;41.33;;;21.20;;
17380;SDS011;8808;52.478;13.378;2023-04-29T05:39:42;47.23;;;22.37;;
17380;SDS011;8808;52.478;13.378;2023-04-29T05:42:10;48.77;;;23.37;;
17380;SDS011;8808;52.478;13.378;2023-04-29T05:44:37;48.90;;;22.40;;
17380;SDS011;8808;52.478;13.378;2023-04-29T05:47:05;50.03;;;23.20;;
17380;SDS011;8808;52.478;13.378;2023-04-29T05:49:31;44.03;;;21.70;;
17380;SDS011;8808;52.478;13.378;2023-04-29T05:51:58;47.93;;;23.60;;
17380;SDS011;8808;52.478;13.378;2023-04-29T05:54:28;50.50;;;21.87;;
17380;SDS011;8808;52.478;13.378;2023-04-29T05:56:55;54.97;;;23.13;;
17380;SDS011;8808;52.478;13.378;2023-04-29T05:59:23;47.33;;;21.87;;
17380;SDS011;8808;52.478;13.378;2023-04-29T06:01:50;50.60;;;20.87;;
17380;SDS011;8808;52.478;13.378;2023-04-29T06:04:17;48.80;;;22.87;;
17380;SDS011;8808;52.478;13.378;2023-04-29T06:06:44;49.07;;;22.10;;
17380;SDS011;8808;52.478;13.378;2023-04-29T06:09:11;46.80;;;22.17;;
17380;SDS011;8808;52.478;13.378;2023-04-29T06:11:39;50.83;;;23.07;;
17380;SDS011;8808;52.478;13.378;2023-04-29T06:14:06;46.00;;;21.97;;
17380;SDS011;8808;52.478;13.378;2023-04-29T06:16:34;46.60;;;22.03;;
17380;SDS011;8808;52.478;13.378;2023-04-29T06:19:01;45.93;;;21.50;;
17380;SDS011;8808;52.478;13.378;2023-04-29T06:21:29;46.40;;;20.77;;
17380;SDS011;8808;52.478;13.378;2023-04-29T06:23:56;47.57;;;22.07;;
17380;SDS011;8808;52.478;13.378;2023-04-29T06:26:23;48.03;;;21.07;;
17380;SDS011;8808;52.478;13.378;2023-04-29T06:28:50;46.43;;;21.50;;
17380;SDS011;8808;52.478;13.378;2023-04-29T06:31:18;42.43;;;21.00;;
17380;SDS011;8808;52.478;13.378;2023-04-29T06:33:46;46.97;;;20.50;;
17380;SDS011;8808;52.478;13.378;2023-04-29T06:36:13;46.60;;;20.47;;
17380;SDS011;8808;52.478;13.378;2023-04-29T06:38:40;39.93;;;18.73;;
17380;SDS011;8808;52.478;13.378;2023-04-29T06:41:07;42.40;;;18.60;;
17380;SDS011;8808;52.478;13.378;2023-04-29T06:43:34;43.57;;;18.10;;
17380;SDS011;8808;52.478;13.378;2023-04-29T06:46:01;41.13;;;18.00;;
17380;SDS011;8808;52.478;13.378;2023-04-29T06:48:28;41.90;;;16.83;;
17380;SDS011;8808;52.478;13.378;2023-04-29T06:50:56;38.30;;;17.07;;
17380;SDS011;8808;52.478;13.378;2023-04-29T06:53:24;32.57;;;15.20;;
17380;SDS011;8808;52.478;13.378;2023-04-29T06:55:51;36.80;;;16.30;;
17380;SDS011;8808;52.478;13.378;2023-04-29T06:58:18;35.03;;;15.90;;
17380;SDS011;8808;52.478;13.378;2023-04-29T07:00:45;37.07;;;16.13;;
17380;SDS011;8808;52.478;13.378;2023-04-29T07:03:13;35.03;;;16.23;;
17380;SDS011;8808;52.478;13.378;2023-04-29T07:05:41;37.40;;;16.00;;
17380;SDS011;8808;52.478;13.378;2023-04-29T07:08:11;35.73;;;15.03;;
17380;SDS011;8808;52.478;13.378;2023-04-29T07:10:38;33.83;;;15.00;;
17380;SDS011;8808;52.478;13.378;2023-04-29T07:13:06;38.00;;;16.13;;
17380;SDS011;8808;52.478;13.378;2023-04-29T07:15:34;31.23;;;14.33;;
17380;SDS011;8808;52.478;13.378;2023-04-29T07:18:02;38.67;;;17.37;;
17380;SDS011;8808;52.478;13.378;2023-04-29T07:20:29;40.40;;;19.47;;
17380;SDS011;8808;52.478;13.378;2023-04-29T07:22:56;45.10;;;19.50;;
17380;SDS011;8808;52.478;13.378;2023-04-29T07:25:24;41.93;;;18.73;;
17380;SDS011;8808;52.478;13.378;2023-04-29T07:27:53;43.23;;;18.03;;
17380;SDS011;8808;52.478;13.378;2023-04-29T07:30:20;43.03;;;18.37;;
17380;SDS011;8808;52.478;13.378;2023-04-29T07:32:47;44.27;;;18.67;;
17380;SDS011;8808;52.478;13.378;2023-04-29T07:35:14;43.50;;;19.17;;
17380;SDS011;8808;52.478;13.378;2023-04-29T07:37:41;40.23;;;18.47;;
17380;SDS011;8808;52.478;13.378;2023-04-29T07:40:09;43.20;;;19.63;;
17380;SDS011;8808;52.478;13.378;2023-04-29T07:42:38;41.27;;;18.73;;
17380;SDS011;8808;52.478;13.378;2023-04-29T07:45:05;48.97;;;20.30;;
17380;SDS011;8808;52.478;13.378;2023-04-29T07:47:33;42.23;;;18.80;;
17380;SDS011;8808;52.478;13.378;2023-04-29T07:50:00;39.63;;;18.87;;
17380;SDS011;8808;52.478;13.378;2023-04-29T07:52:27;39.07;;;19.03;;
17380;SDS011;8808;52.478;13.378;2023-04-29T07:54:54;37.93;;;18.87;;
17380;SDS011;8808;52.478;13.378;2023-04-29T07:57:21;35.50;;;17.63;;
17380;SDS011;8808;52.478;13.378;2023-04-29T07:59:51;34.63;;;18.57;;
17380;SDS011;8808;52.478;13.378;2023-04-29T08:02:18;39.03;;;17.97;;
17380;SDS011;8808;52.478;13.378;2023-04-29T08:04:45;37.40;;;19.77;;
17380;SDS011;8808;52.478;13.378;2023-04-29T08:07:12;34.73;;;18.80;;
17380;SDS011;8808;52.478;13.378;2023-04-29T08:09:39;34.13;;;16.77;;
17380;SDS011;8808;52.478;13.378;2023-04-29T08:12:07;31.40;;;16.57;;
17380;SDS011;8808;52.478;13.378;2023-04-29T08:14:34;32.03;;;17.63;;
17380;SDS011;8808;52.478;13.378;2023-04-29T08:17:02;31.60;;;15.40;;
17380;SDS011;8808;52.478;13.378;2023-04-29T08:19:29;28.93;;;15.17;;
17380;SDS011;8808;52.478;13.378;2023-04-29T08:21:56;27.77;;;15.60;;
17380;SDS011;8808;52.478;13.378;2023-04-29T08:24:25;29.67;;;16.33;;
17380;SDS011;8808;52.478;13.378;2023-04-29T08:26:53;26.83;;;15.13;;
17380;SDS011;8808;52.478;13.378;2023-04-29T08:29:20;29.93;;;15.23;;
17380;SDS011;8808;52.478;13.378;2023-04-29T08:31:47;26.27;;;15.00;;
17380;SDS011;8808;52.478;13.378;2023-04-29T08:34:15;26.13;;;14.87;;
17380;SDS011;8808;52.478;13.378;2023-04-29T08:36:42;26.53;;;14.30;;
17380;SDS011;8808;52.478;13.378;2023-04-29T08:39:09;27.17;;;15.17;;
17380;SDS011;8808;52.478;13.378;2023-04-29T08:41:36;27.00;;;14.70;;
17380;SDS011;8808;52.478;13.378;2023-04-29T08:44:03;27.40;;;15.43;;
17380;SDS011;8808;52.478;13.378;2023-04-29T08:46:31;26.63;;;15.03;;
17380;SDS011;8808;52.478;13.378;2023-04-29T08:48:58;29.83;;;15.80;;
17380;SDS011;8808;52.478;13.378;2023-04-29T08:51:29;26.67;;;14.70;;
17380;SDS011;8808;52.478;13.378;2023-04-29T08:53:57;26.07;;;13.70;;
17380;SDS011;8808;52.478;13.378;2023-04-29T08:56:24;26.90;;;15.40;;
17380;SDS011;8808;52.478;13.378;2023-04-29T08:58:52;27.83;;;14.60;;
17380;SDS011;8808;52.478;13.378;2023-04-29T09:01:23;30.23;;;14.83;;
17380;SDS011;8808;52.478;13.378;2023-04-29T09:03:53;32.47;;;14.90;;
17380;SDS011;8808;52.478;13.378;2023-04-29T09:06:31;30.07;;;15.93;;
17380;SDS011;8808;52.478;13.378;2023-04-29T09:08:58;29.47;;;14.80;;
17380;SDS011;8808;52.478;13.378;2023-04-29T09:11:27;31.17;;;15.10;;
17380;SDS011;8808;52.478;13.378;2023-04-29T09:13:57;32.13;;;16.20;;
17380;SDS011;8808;52.478;13.378;2023-04-29T09:16:25;29.30;;;14.67;;
17380;SDS011;8808;52.478;13.378;2023-04-29T09:18:52;34.63;;;16.37;;
17380;SDS011;8808;52.478;13.378;2023-04-29T09:21:21;33.27;;;15.93;;
17380;SDS011;8808;52.478;13.378;2023-04-29T09:23:51;37.10;;;17.03;;
17380;SDS011;8808;52.478;13.378;2023-04-29T09:26:19;34.77;;;17.13;;
17380;SDS011;8808;52.478;13.378;2023-04-29T09:28:46;32.53;;;16.80;;
17380;SDS011;8808;52.478;13.378;2023-04-29T09:31:14;35.90;;;17.40;;
17380;SDS011;8808;52.478;13.378;2023-04-29T09:36:34;37.93;;;16.27;;
17380;SDS011;8808;52.478;13.378;2023-04-29T09:39:04;35.60;;;17.30;;
17380;SDS011;8808;52.478;13.378;2023-04-29T09:41:35;37.83;;;17.67;;
17380;SDS011;8808;52.478;13.378;2023-04-29T09:44:04;42.73;;;19.47;;
17380;SDS011;8808;52.478;13.378;2023-04-29T09:46:32;43.00;;;20.87;;
17380;SDS011;8808;52.478;13.378;2023-04-29T09:49:01;46.80;;;21.70;;
17380;SDS011;8808;52.478;13.378;2023-04-29T09:51:28;49.47;;;21.60;;
17380;SDS011;8808;52.478;13.378;2023-04-29T09:53:57;46.27;;;20.97;;
17380;SDS011;8808;52.478;13.378;2023-04-29T09:56:26;44.90;;;21.73;;
17380;SDS011;8808;52.478;13.378;2023-04-29T09:58:54;51.53;;;23.73;;
17380;SDS011;8808;52.478;13.378;2023-04-29T10:01:22;49.80;;;22.43;;
17380;SDS011;8808;52.478;13.378;2023-04-29T10:03:51;52.63;;;22.97;;
17380;SDS011;8808;52.478;13.378;2023-04-29T10:06:20;54.00;;;23.13;;
17380;SDS011;8808;52.478;13.378;2023-04-29T10:08:48;53.03;;;25.77;;
17380;SDS011;8808;52.478;13.378;2023-04-29T10:11:16;68.33;;;28.90;;
17380;SDS011;8808;52.478;13.378;2023-04-29T10:13:44;66.67;;;28.53;;
17380;SDS011;8808;52.478;13.378;2023-04-29T10:16:16;67.83;;;29.43;;
17380;SDS011;8808;52.478;13.378;2023-04-29T10:18:53;73.43;;;28.97;;
17380;SDS011;8808;52.478;13.378;2023-04-29T10:21:23;72.07;;;31.17;;
17380;SDS011;8808;52.478;13.378;2023-04-29T10:23:54;78.07;;;31.30;;
17380;SDS011;8808;52.478;13.378;2023-04-29T10:26:23;83.40;;;32.87;;
17380;SDS011;8808;52.478;13.378;2023-04-29T10:28:54;78.93;;;32.47;;
17380;SDS011;8808;52.478;13.378;2023-04-29T10:31:24;76.00;;;32.00;;
17380;SDS011;8808;52.478;13.378;2023-04-29T10:33:53;72.83;;;30.90;;
17380;SDS011;8808;52.478;13.378;2023-04-29T10:36:22;74.27;;;32.60;;
17380;SDS011;8808;52.478;13.378;2023-04-29T10:38:52;81.87;;;33.00;;
17380;SDS011;8808;52.478;13.378;2023-04-29T10:41:22;80.80;;;33.10;;
17380;SDS011;8808;52.478;13.378;2023-04-29T10:43:52;74.40;;;33.07;;
17380;SDS011;8808;52.478;13.378;2023-04-29T10:46:24;82.63;;;33.77;;
17380;SDS011;8808;52.478;13.378;2023-04-29T10:48:55;78.67;;;33.17;;
17380;SDS011;8808;52.478;13.378;2023-04-29T10:51:27;74.87;;;31.93;;
17380;SDS011;8808;52.478;13.378;2023-04-29T10:53:59;68.13;;;32.93;;
17380;SDS011;8808;52.478;13.378;2023-04-29T10:56:37;62.97;;;30.20;;
17380;SDS011;8808;52.478;13.378;2023-04-29T10:59:10;61.07;;;30.70;;
17380;SDS011;8808;52.478;13.378;2023-04-29T11:01:42;65.77;;;30.37;;
17380;SDS011;8808;52.478;13.378;2023-04-29T11:04:10;64.17;;;29.20;;
17380;SDS011;8808;52.478;13.378;2023-04-29T11:06:38;55.93;;;29.27;;
17380;SDS011;8808;52.478;13.378;2023-04-29T11:09:08;62.03;;;29.30;;
17380;SDS011;8808;52.478;13.378;2023-04-29T11:11:40;53.23;;;27.63;;
17380;SDS011;8808;52.478;13.378;2023-04-29T11:14:09;67.83;;;29.53;;
17380;SDS011;8808;52.478;13.378;2023-04-29T11:16:45;57.33;;;27.80;;
17380;SDS011;8808;52.478;13.378;2023-04-29T11:19:14;50.77;;;26.70;;
17380;SDS011;8808;52.478;13.378;2023-04-29T11:21:42;50.07;;;25.63;;
17380;SDS011;8808;52.478;13.378;2023-04-29T11:24:10;48.93;;;24.23;;
17380;SDS011;8808;52.478;13.378;2023-04-29T11:26:39;48.27;;;25.53;;
17380;SDS011;8808;52.478;13.378;2023-04-29T11:29:07;48.37;;;24.27;;
17380;SDS011;8808;52.478;13.378;2023-04-29T11:31:36;48.03;;;23.80;;
17380;SDS011;8808;52.478;13.378;2023-04-29T11:34:03;39.97;;;22.63;;
17380;SDS011;8808;52.478;13.378;2023-04-29T11:36:31;44.53;;;23.67;;
17380;SDS011;8808;52.478;13.378;2023-04-29T11:38:59;42.00;;;23.17;;
17380;SDS011;8808;52.478;13.378;2023-04-29T11:41:26;42.90;;;22.57;;
17380;SDS011;8808;52.478;13.378;2023-04-29T11:43:54;39.87;;;22.07;;
17380;SDS011;8808;52.478;13.378;2023-04-29T11:46:23;42.70;;;22.23;;
17380;SDS011;8808;52.478;13.378;2023-04-29T11:48:53;36.83;;;19.97;;
17380;SDS011;8808;52.478;13.378;2023-04-29T11:51:20;35.07;;;19.50;;
17380;SDS011;8808;52.478;13.378;2023-04-29T11:53:47;38.10;;;20.80;;
17380;SDS011;8808;52.478;13.378;2023-04-29T11:56:14;32.63;;;18.80;;
17380;SDS011;8808;52.478;13.378;2023-04-29T11:58:41;31.07;;;18.37;;
17380;SDS011;8808;52.478;13.378;2023-04-29T12:01:08;34.67;;;19.30;;
17380;SDS011;8808;52.478;13.378;2023-04-29T12:03:37;33.57;;;17.13;;
17380;SDS011;8808;52.478;13.378;2023-04-29T12:06:04;32.17;;;17.47;;
17380;SDS011;8808;52.478;13.378;2023-04-29T12:08:31;33.93;;;17.50;;
17380;SDS011;8808;52.478;13.378;2023-04-29T12:10:59;23.93;;;13.47;;
17380;SDS011;8808;52.478;13.378;2023-04-29T12:13:27;29.07;;;16.80;;
17380;SDS011;8808;52.478;13.378;2023-04-29T12:15:55;27.10;;;15.67;;
17380;SDS011;8808;52.478;13.378;2023-04-29T12:18:23;28.47;;;15.87;;
17380;SDS011;8808;52.478;13.378;2023-04-29T12:20:53;29.43;;;15.93;;
17380;SDS011;8808;52.478;13.378;2023-04-29T12:23:22;26.47;;;15.47;;
17380;SDS011;8808;52.478;13.378;2023-04-29T12:25:51;28.80;;;17.10;;
17380;SDS011;8808;52.478;13.378;2023-04-29T12:28:19;26.43;;;15.67;;
17380;SDS011;8808;52.478;13.378;2023-04-29T12:30:47;28.60;;;16.17;;
17380;SDS011;8808;52.478;13.378;2023-04-29T12:33:17;24.93;;;14.57;;
17380;SDS011;8808;52.478;13.378;2023-04-29T12:35:45;30.73;;;16.17;;
17380;SDS011;8808;52.478;13.378;2023-04-29T12:38:16;25.77;;;15.40;;
17380;SDS011;8808;52.478;13.378;2023-04-29T12:40:45;26.80;;;14.53;;
17380;SDS011;8808;52.478;13.378;2023-04-29T12:43:12;30.27;;;14.83;;
17380;SDS011;8808;52.478;13.378;2023-04-29T12:45:40;24.93;;;14.80;;
17380;SDS011;8808;52.478;13.378;2023-04-29T12:48:07;25.73;;;15.13;;
17380;SDS011;8808;52.478;13.378;2023-04-29T12:50:34;24.47;;;14.10;;
17380;SDS011;8808;52.478;13.378;2023-04-29T12:53:02;27.47;;;14.73;;
17380;SDS011;8808;52.478;13.378;2023-04-29T12:55:32;27.07;;;14.87;;
17380;SDS011;8808;52.478;13.378;2023-04-29T12:58:00;24.03;;;13.80;;
17380;SDS011;8808;52.478;13.378;2023-04-29T13:00:27;24.17;;;12.70;;
17380;SDS011;8808;52.478;13.378;2023-04-29T13:02:54;21.50;;;11.53;;
17380;SDS011;8808;52.478;13.378;2023-04-29T13:05:21;17.17;;;10.90;;
17380;SDS011;8808;52.478;13.378;2023-04-29T13:07:49;20.57;;;10.57;;
17380;SDS011;8808;52.478;13.378;2023-04-29T13:10:16;19.40;;;9.90;;
17380;SDS011;8808;52.478;13.378;2023-04-29T13:12:44;18.20;;;10.60;;
17380;SDS011;8808;52.478;13.378;2023-04-29T13:15:12;15.87;;;9.83;;
17380;SDS011;8808;52.478;13.378;2023-04-29T13:17:39;15.07;;;8.97;;
17380;SDS011;8808;52.478;13.378;2023-04-29T13:20:06;12.70;;;8.53;;
17380;SDS011;8808;52.478;13.378;2023-04-29T13:22:35;14.40;;;8.83;;
17380;SDS011;8808;52.478;13.378;2023-04-29T13:25:03;11.00;;;7.13;;
17380;SDS011;8808;52.478;13.378;2023-04-29T13:27:31;11.47;;;6.80;;
17380;SDS011;8808;52.478;13.378;2023-04-29T13:30:00;11.33;;;6.67;;
17380;SDS011;8808;52.478;13.378;2023-04-29T13:32:27;11.67;;;7.43;;
17380;SDS011;8808;52.478;13.378;2023-04-29T13:34:54;13.50;;;6.97;;
17380;SDS011;8808;52.478;13.378;2023-04-29T13:37:21;9.87;;;6.40;;
17380;SDS011;8808;52.478;13.378;2023-04-29T13:39:48;8.20;;;6.07;;
17380;SDS011;8808;52.478;13.378;2023-04-29T13:42:15;7.90;;;5.50;;
17380;SDS011;8808;52.478;13.378;2023-04-29T13:44:42;9.77;;;6.57;;
17380;SDS011;8808;52.478;13.378;2023-04-29T13:47:11;9.23;;;5.70;;
17380;SDS011;8808;52.478;13.378;2023-04-29T13:49:38;8.37;;;5.83;;
17380;SDS011;8808;52.478;13.378;2023-04-29T13:52:05;11.07;;;6.33;;
17380;SDS011;8808;52.478;13.378;2023-04-29T13:54:32;12.43;;;6.97;;
17380;SDS011;8808;52.478;13.378;2023-04-29T13:57:00;14.57;;;7.37;;
17380;SDS011;8808;52.478;13.378;2023-04-29T13:59:28;12.47;;;6.97;;
17380;SDS011;8808;52.478;13.378;2023-04-29T14:01:55;7.73;;;4.37;;
17380;SDS011;8808;52.478;13.378;2023-04-29T14:04:23;17.80;;;10.27;;
17380;SDS011;8808;52.478;13.378;2023-04-29T14:06:50;12.10;;;6.53;;
17380;SDS011;8808;52.478;13.378;2023-04-29T14:09:17;11.35;;;6.32;;
17380;SDS011;8808;52.478;13.378;2023-04-29T14:11:44;8.43;;;5.20;;
17380;SDS011;8808;52.478;13.378;2023-04-29T14:14:12;13.30;;;7.23;;
17380;SDS011;8808;52.478;13.378;2023-04-29T14:16:39;16.93;;;7.90;;
17380;SDS011;8808;52.478;13.378;2023-04-29T14:19:06;12.30;;;7.70;;
17380;SDS011;8808;52.478;13.378;2023-04-29T14:21:35;13.30;;;7.50;;
17380;SDS011;8808;52.478;13.378;2023-04-29T14:24:02;13.63;;;7.80;;
17380;SDS011;8808;52.478;13.378;2023-04-29T14:26:29;12.70;;;7.43;;
17380;SDS011;8808;52.478;13.378;2023-04-29T14:28:57;12.83;;;7.40;;
17380;SDS011;8808;52.478;13.378;2023-04-29T14:31:24;9.50;;;5.77;;
17380;SDS011;8808;52.478;13.378;2023-04-29T14:33:53;15.10;;;7.93;;